Time;durP1;ratioP1;P1;durP2;ratioP2;P2;SDS_P1;SDS_P2;PMS_P1;PMS_P2;Temp;Humidity;BMP_temperature;BMP_pressure;BME280_temperature;BME280_humidity;BME280_pressure;Samples;Min_cycle;Max_cycle;Signal;HPM_P1;HPM_P2
2022/01/16 00:04:41;;;;;;;1.70;1.37;;;;;;;;;;5019616;28;20680;-67
2022/01/16 00:07:08;;;;;;;0.33;0.33;;;;;;;;;;5059089;28;20203;-68
2022/01/16 00:09:35;;;;;;;0.07;0.07;;;;;;;;;;5057599;28;20195;-67
2022/01/16 00:12:05;;;;;;;3.00;2.57;;;;;;;;;;5049990;28;20282;-67
2022/01/16 00:14:33;;;;;;;1.10;0.63;;;;;;;;;;5052596;28;20192;-66
2022/01/16 00:17:00;;;;;;;0.33;0.33;;;;;;;;;;5050805;28;20207;-67
2022/01/16 00:19:28;;;;;;;0.10;0.10;;;;;;;;;;5050181;28;20211;-66
2022/01/16 00:21:58;;;;;;;2.27;2.00;;;;;;;;;;5053831;28;20198;-67
2022/01/16 00:24:25;;;;;;;0.50;0.50;;;;;;;;;;5049136;28;20599;-68
2022/01/16 00:26:53;;;;;;;0.30;0.30;;;;;;;;;;5050997;28;20202;-67
2022/01/16 00:29:20;;;;;;;1.13;1.07;;;;;;;;;;5058352;28;20229;-67
2022/01/16 00:31:47;;;;;;;0.30;0.30;;;;;;;;;;5058733;28;20606;-67
2022/01/16 00:34:15;;;;;;;0.23;0.23;;;;;;;;;;5054367;28;20206;-67
2022/01/16 00:36:42;;;;;;;0.00;0.00;;;;;;;;;;5050661;28;20207;-67
2022/01/16 00:39:11;;;;;;;0.00;0.00;;;;;;;;;;5053625;28;20214;-67
2022/01/16 00:41:38;;;;;;;0.00;0.00;;;;;;;;;;5050884;28;20621;-67
2022/01/16 00:44:06;;;;;;;0.00;0.00;;;;;;;;;;5051767;28;20231;-68
2022/01/16 00:46:33;;;;;;;0.00;0.00;;;;;;;;;;5050115;28;20203;-67
2022/01/16 00:49:01;;;;;;;0.30;0.30;;;;;;;;;;5050794;28;20203;-67
2022/01/16 00:51:28;;;;;;;0.27;0.27;;;;;;;;;;5049528;28;20230;-67
2022/01/16 00:53:56;;;;;;;0.00;0.00;;;;;;;;;;5050305;28;20206;-67
2022/01/16 00:56:25;;;;;;;0.10;0.10;;;;;;;;;;5049123;28;20219;-67
2022/01/16 00:58:52;;;;;;;0.10;0.10;;;;;;;;;;5051427;28;20204;-67
2022/01/16 01:01:19;;;;;;;0.00;0.00;;;;;;;;;;5050533;28;20283;-68
2022/01/16 01:03:47;;;;;;;0.10;0.10;;;;;;;;;;5052197;28;20237;-68
2022/01/16 01:06:14;;;;;;;0.00;0.00;;;;;;;;;;5049420;28;20196;-66
2022/01/16 01:08:42;;;;;;;0.10;0.10;;;;;;;;;;5053250;28;20225;-67
2022/01/16 01:11:14;;;;;;;1.60;0.93;;;;;;;;;;5052033;28;20206;-67
2022/01/16 01:14:07;;;;;;;0.67;0.57;;;;;;;;;;5051031;28;20206;-67
2022/01/16 01:16:49;;;;;;;0.10;0.10;;;;;;;;;;5051578;28;20307;-67
2022/01/16 01:19:17;;;;;;;1.93;1.87;;;;;;;;;;5051041;28;20192;-66
2022/01/16 01:21:44;;;;;;;0.10;0.10;;;;;;;;;;5052015;28;20203;-67
2022/01/16 01:24:11;;;;;;;0.30;0.30;;;;;;;;;;5057067;28;20709;-66
2022/01/16 01:26:47;;;;;;;1.60;1.03;;;;;;;;;;5059346;28;20215;-66
2022/01/16 01:29:19;;;;;;;0.00;0.00;;;;;;;;;;5053039;28;20237;-66
2022/01/16 01:31:47;;;;;;;0.10;0.10;;;;;;;;;;5056810;28;20209;-68
2022/01/16 01:34:14;;;;;;;0.00;0.00;;;;;;;;;;5053273;28;20695;-67
2022/01/16 01:36:42;;;;;;;0.00;0.00;;;;;;;;;;5051407;28;20210;-65
2022/01/16 01:39:09;;;;;;;0.00;0.00;;;;;;;;;;5049369;28;20605;-67
2022/01/16 01:41:36;;;;;;;0.23;0.23;;;;;;;;;;5053452;28;20231;-67
2022/01/16 01:52:20;;;;;;;0.30;0.30;;;;;;;;;;5048435;28;20242;-67
2022/01/16 01:54:48;;;;;;;1.77;1.40;;;;;;;;;;5049491;28;20200;-66
2022/01/16 01:57:16;;;;;;;1.20;1.10;;;;;;;;;;5048936;28;20204;-67
2022/01/16 01:59:43;;;;;;;1.73;1.60;;;;;;;;;;5049733;28;20217;-66
2022/01/16 02:02:12;;;;;;;0.20;0.20;;;;;;;;;;5050957;28;20191;-66
2022/01/16 02:04:40;;;;;;;0.40;0.40;;;;;;;;;;5059547;28;20237;-66
2022/01/16 02:07:07;;;;;;;0.10;0.10;;;;;;;;;;5060468;28;20201;-66
2022/01/16 02:09:34;;;;;;;0.20;0.20;;;;;;;;;;5055757;28;20195;-68
2022/01/16 02:12:02;;;;;;;0.10;0.10;;;;;;;;;;5053633;28;20196;-67
2022/01/16 02:14:33;;;;;;;1.47;0.80;;;;;;;;;;5048237;28;20210;-67
2022/01/16 02:28:10;;;;;;;0.20;0.20;;;;;;;;;;5062344;28;20234;-67
2022/01/16 02:31:02;;;;;;;0.17;0.17;;;;;;;;;;5059763;28;20202;-67
2022/01/16 02:36:26;;;;;;;0.00;0.00;;;;;;;;;;5059073;28;20341;-67
2022/01/16 02:38:58;;;;;;;0.20;0.20;;;;;;;;;;5053628;28;20309;-66
2022/01/16 02:41:26;;;;;;;0.00;0.00;;;;;;;;;;5049566;28;20196;-66
2022/01/16 02:43:55;;;;;;;0.00;0.00;;;;;;;;;;5052622;28;20246;-67
2022/01/16 02:46:39;;;;;;;2.50;2.17;;;;;;;;;;5055635;28;20199;-66
2022/01/16 02:49:21;;;;;;;0.40;0.40;;;;;;;;;;5053834;28;20196;-66
2022/01/16 02:51:51;;;;;;;0.10;0.10;;;;;;;;;;5056092;28;20263;-67
2022/01/16 02:54:20;;;;;;;0.00;0.00;;;;;;;;;;5066329;28;20179;-66
2022/01/16 02:56:48;;;;;;;0.00;0.00;;;;;;;;;;5052555;28;20210;-66
2022/01/16 02:59:17;;;;;;;0.50;0.50;;;;;;;;;;5050083;28;20199;-67
2022/01/16 03:01:45;;;;;;;0.30;0.30;;;;;;;;;;5054771;28;20192;-66
2022/01/16 03:04:12;;;;;;;1.43;0.97;;;;;;;;;;5051365;28;20219;-67
2022/01/16 03:06:40;;;;;;;0.00;0.00;;;;;;;;;;5062704;28;20260;-66
2022/01/16 03:09:09;;;;;;;0.00;0.00;;;;;;;;;;5050860;28;20200;-66
2022/01/16 03:11:40;;;;;;;0.00;0.00;;;;;;;;;;5061535;28;20198;-67
2022/01/16 03:14:10;;;;;;;0.00;0.00;;;;;;;;;;5050902;28;20564;-66
2022/01/16 03:16:41;;;;;;;0.00;0.00;;;;;;;;;;5051059;28;20199;-67
2022/01/16 03:22:03;;;;;;;0.00;0.00;;;;;;;;;;5010620;28;20215;-68
2022/01/16 03:24:32;;;;;;;2.53;0.73;;;;;;;;;;5048559;28;20806;-67
2022/01/16 03:27:01;;;;;;;0.03;0.03;;;;;;;;;;5046128;28;20227;-67
2022/01/16 03:29:29;;;;;;;0.10;0.10;;;;;;;;;;5044669;28;20203;-66
2022/01/16 03:31:57;;;;;;;0.00;0.00;;;;;;;;;;5047623;28;20202;-66
2022/01/16 03:34:25;;;;;;;0.00;0.00;;;;;;;;;;5046317;28;20211;-66
2022/01/16 03:36:53;;;;;;;0.03;0.03;;;;;;;;;;5045888;28;20219;-67
2022/01/16 03:39:21;;;;;;;0.00;0.00;;;;;;;;;;5048113;28;20195;-67
2022/01/16 03:41:48;;;;;;;1.10;1.10;;;;;;;;;;5047053;28;20274;-67
2022/01/16 03:44:19;;;;;;;0.47;0.47;;;;;;;;;;5046451;28;20219;-65
2022/01/16 03:46:47;;;;;;;1.37;0.80;;;;;;;;;;5046990;28;20199;-68
2022/01/16 03:49:15;;;;;;;0.47;0.40;;;;;;;;;;5047346;28;20278;-67
2022/01/16 03:51:43;;;;;;;0.97;0.97;;;;;;;;;;5047777;28;20716;-67
2022/01/16 03:54:11;;;;;;;1.00;1.00;;;;;;;;;;5047949;28;20202;-67
2022/01/16 03:56:39;;;;;;;1.30;1.27;;;;;;;;;;5047771;28;20227;-67
2022/01/16 03:59:07;;;;;;;1.17;1.07;;;;;;;;;;5048448;28;20195;-66
2022/01/16 04:01:36;;;;;;;0.67;0.23;;;;;;;;;;5048354;28;20196;-66
2022/01/16 04:04:04;;;;;;;0.10;0.10;;;;;;;;;;5046516;28;20219;-66
2022/01/16 04:06:31;;;;;;;0.13;0.13;;;;;;;;;;5048123;28;20258;-67
2022/01/16 04:08:59;;;;;;;0.13;0.13;;;;;;;;;;5046093;28;20321;-67
2022/01/16 04:11:28;;;;;;;0.10;0.10;;;;;;;;;;5048138;28;20196;-67
2022/01/16 04:14:04;;;;;;;0.13;0.13;;;;;;;;;;5048236;28;21147;-67
2022/01/16 04:16:32;;;;;;;0.23;0.23;;;;;;;;;;5047998;28;20204;-67
2022/01/16 04:19:02;;;;;;;1.00;0.97;;;;;;;;;;5047435;28;20199;-67
2022/01/16 04:21:30;;;;;;;0.53;0.53;;;;;;;;;;5047489;28;20202;-67
2022/01/16 04:23:58;;;;;;;1.30;0.70;;;;;;;;;;5047844;28;20542;-67
2022/01/16 04:26:26;;;;;;;1.53;1.30;;;;;;;;;;5048166;28;20208;-67
2022/01/16 04:28:54;;;;;;;1.87;0.60;;;;;;;;;;5046139;28;20254;-66
2022/01/16 04:31:22;;;;;;;0.63;0.63;;;;;;;;;;5045762;28;20596;-67
2022/01/16 04:33:49;;;;;;;0.80;0.80;;;;;;;;;;5047864;28;20196;-66
2022/01/16 04:36:18;;;;;;;0.97;0.87;;;;;;;;;;5047586;28;20191;-66
2022/01/16 04:38:48;;;;;;;0.80;0.80;;;;;;;;;;5047204;28;20680;-67
2022/01/16 04:44:01;;;;;;;0.70;0.70;;;;;;;;;;5047565;28;20599;-68
2022/01/16 04:46:30;;;;;;;1.43;1.30;;;;;;;;;;5046498;28;20203;-67
2022/01/16 04:48:58;;;;;;;1.33;1.33;;;;;;;;;;5046457;28;20214;-66
2022/01/16 04:51:28;;;;;;;0.57;0.57;;;;;;;;;;5046180;28;20589;-67
2022/01/16 04:53:56;;;;;;;6.73;3.13;;;;;;;;;;5045123;28;20202;-66
2022/01/16 04:56:23;;;;;;;7.13;4.90;;;;;;;;;;5046022;28;20212;-67
2022/01/16 04:58:50;;;;;;;4.20;2.70;;;;;;;;;;5047193;28;20199;-66
2022/01/16 05:01:18;;;;;;;3.27;2.90;;;;;;;;;;5046839;28;20744;-67
2022/01/16 05:03:45;;;;;;;1.87;1.77;;;;;;;;;;5047040;28;20206;-67
2022/01/16 05:06:13;;;;;;;8.93;4.37;;;;;;;;;;5045938;28;20311;-67
2022/01/16 05:08:42;;;;;;;0.70;0.70;;;;;;;;;;5046379;28;20203;-67
2022/01/16 05:11:11;;;;;;;3.33;3.13;;;;;;;;;;5047026;28;20203;-67
2022/01/16 05:16:37;;;;;;;7.30;3.77;;;;;;;;;;5046139;28;20195;-67
2022/01/16 05:19:05;;;;;;;2.03;1.87;;;;;;;;;;5045765;28;20202;-67
2022/01/16 05:21:33;;;;;;;1.80;1.33;;;;;;;;;;5046489;28;20261;-66
2022/01/16 05:24:07;;;;;;;0.77;0.63;;;;;;;;;;5046786;28;20214;-68
2022/01/16 05:26:35;;;;;;;7.67;4.67;;;;;;;;;;5046821;28;20273;-67
2022/01/16 05:29:02;;;;;;;4.07;3.40;;;;;;;;;;5045639;28;20235;-67
2022/01/16 05:31:30;;;;;;;2.10;1.93;;;;;;;;;;5046653;28;20684;-67
2022/01/16 05:33:57;;;;;;;2.30;2.20;;;;;;;;;;5045152;28;20676;-67
2022/01/16 05:36:24;;;;;;;0.30;0.30;;;;;;;;;;5044403;28;20561;-67
2022/01/16 05:38:53;;;;;;;2.57;2.37;;;;;;;;;;5045075;28;20195;-66
2022/01/16 05:41:22;;;;;;;1.60;1.50;;;;;;;;;;5045543;28;20195;-67
2022/01/16 05:43:49;;;;;;;1.10;0.70;;;;;;;;;;5046036;28;20199;-66
2022/01/16 05:46:17;;;;;;;7.33;6.33;;;;;;;;;;5046215;28;20215;-66
2022/01/16 05:48:44;;;;;;;1.90;0.97;;;;;;;;;;5045410;28;20207;-67
2022/01/16 05:51:12;;;;;;;12.87;5.23;;;;;;;;;;5045892;28;20220;-67
2022/01/16 05:53:39;;;;;;;3.27;2.97;;;;;;;;;;5045188;28;20210;-67
2022/01/16 05:56:07;;;;;;;1.40;1.30;;;;;;;;;;5045602;28;20196;-67
2022/01/16 05:58:35;;;;;;;7.73;4.30;;;;;;;;;;5045697;28;20669;-67
2022/01/16 06:01:03;;;;;;;3.17;2.97;;;;;;;;;;5043236;28;20195;-67
2022/01/16 06:03:30;;;;;;;9.07;5.80;;;;;;;;;;5046659;28;20188;-67
2022/01/16 06:05:57;;;;;;;3.20;2.93;;;;;;;;;;5044935;28;20289;-66
2022/01/16 06:08:25;;;;;;;13.77;6.60;;;;;;;;;;5045419;28;20206;-67
2022/01/16 06:10:52;;;;;;;2.20;1.83;;;;;;;;;;5045134;28;20200;-66
2022/01/16 06:13:19;;;;;;;6.53;3.93;;;;;;;;;;5046016;28;20202;-67
2022/01/16 06:15:48;;;;;;;1.27;1.27;;;;;;;;;;5045425;28;20215;-67
2022/01/16 06:18:16;;;;;;;5.20;4.63;;;;;;;;;;5046024;28;20191;-67
2022/01/16 06:20:43;;;;;;;5.30;3.10;;;;;;;;;;5044263;28;20199;-67
2022/01/16 06:23:12;;;;;;;5.10;3.37;;;;;;;;;;5045403;28;20191;-67
2022/01/16 06:25:39;;;;;;;3.73;2.77;;;;;;;;;;5043442;28;20242;-67
2022/01/16 06:28:06;;;;;;;1.83;1.33;;;;;;;;;;5039154;28;20684;-68
2022/01/16 06:30:35;;;;;;;8.20;4.30;;;;;;;;;;5034746;28;20673;-67
2022/01/16 06:33:06;;;;;;;7.67;4.07;;;;;;;;;;5038829;28;20204;-68
2022/01/16 06:35:33;;;;;;;7.67;5.33;;;;;;;;;;5035741;28;20211;-67
2022/01/16 06:38:01;;;;;;;3.17;2.47;;;;;;;;;;5036877;28;20196;-67
2022/01/16 06:40:28;;;;;;;1.73;1.70;;;;;;;;;;5037270;28;20196;-67
2022/01/16 06:42:56;;;;;;;5.47;3.67;;;;;;;;;;5039483;28;20207;-67
2022/01/16 06:45:23;;;;;;;5.27;4.80;;;;;;;;;;5036909;28;20238;-67
2022/01/16 06:47:51;;;;;;;5.13;3.73;;;;;;;;;;5035655;28;20695;-67
2022/01/16 06:50:20;;;;;;;1.67;1.57;;;;;;;;;;5037415;28;20207;-67
2022/01/16 06:52:47;;;;;;;9.13;1.77;;;;;;;;;;5035837;28;20265;-66
2022/01/16 09:04:27;;;;;;;1.47;1.37;;;;;;;;;;5093554;27;20650;-66
2022/01/16 09:06:54;;;;;;;3.40;3.03;;;;;;;;;;5091891;28;20205;-67
2022/01/16 09:09:22;;;;;;;2.37;0.90;;;;;;;;;;5091783;28;20297;-69
2022/01/16 09:11:49;;;;;;;0.10;0.10;;;;;;;;;;5092424;28;20191;-69
2022/01/16 09:14:16;;;;;;;1.47;1.37;;;;;;;;;;5092478;28;20226;-72
2022/01/16 09:16:44;;;;;;;0.00;0.00;;;;;;;;;;5094664;28;20193;-71
2022/01/16 09:19:12;;;;;;;3.40;2.97;;;;;;;;;;5090351;28;20206;-69
2022/01/16 09:21:40;;;;;;;2.17;1.33;;;;;;;;;;5092992;28;20228;-72
2022/01/16 09:24:08;;;;;;;0.83;0.77;;;;;;;;;;5093151;28;20193;-70
2022/01/16 09:26:36;;;;;;;5.23;2.67;;;;;;;;;;5092126;28;20264;-70
2022/01/16 09:29:04;;;;;;;7.73;1.07;;;;;;;;;;5092921;28;20204;-71
2022/01/16 09:31:31;;;;;;;1.03;1.03;;;;;;;;;;5091649;28;20661;-69
2022/01/16 09:33:59;;;;;;;1.73;1.10;;;;;;;;;;5091497;28;20606;-69
2022/01/16 09:36:27;;;;;;;8.43;4.37;;;;;;;;;;5091800;28;20198;-70
2022/01/16 09:38:56;;;;;;;12.83;8.20;;;;;;;;;;5092533;28;20201;-70
2022/01/16 09:41:23;;;;;;;5.40;3.27;;;;;;;;;;5096190;28;20202;-72
2022/01/16 09:43:51;;;;;;;7.13;3.63;;;;;;;;;;5094291;28;20201;-72
2022/01/16 09:46:18;;;;;;;2.13;2.00;;;;;;;;;;5092181;28;20659;-73
2022/01/16 09:48:46;;;;;;;2.43;1.77;;;;;;;;;;5092787;28;20216;-72
2022/01/16 09:51:13;;;;;;;0.33;0.33;;;;;;;;;;5093315;28;20213;-67
2022/01/16 09:53:42;;;;;;;0.97;0.97;;;;;;;;;;5093657;28;20237;-72
2022/01/16 09:56:12;;;;;;;13.63;6.77;;;;;;;;;;5095488;28;20201;-72
2022/01/16 09:58:41;;;;;;;3.97;3.30;;;;;;;;;;5096059;28;20655;-69
2022/01/16 10:01:08;;;;;;;8.17;5.67;;;;;;;;;;5099230;28;20194;-70
2022/01/16 10:03:37;;;;;;;3.80;2.70;;;;;;;;;;5091660;28;20226;-69
2022/01/16 10:06:10;;;;;;;6.53;5.20;;;;;;;;;;5094557;28;20213;-68
2022/01/16 10:08:39;;;;;;;15.80;4.83;;;;;;;;;;5091699;28;20208;-68
2022/01/16 10:11:21;;;;;;;6.73;4.50;;;;;;;;;;5091808;28;20251;-70
2022/01/16 10:13:58;;;;;;;7.43;4.30;;;;;;;;;;5087577;28;20581;-66
2022/01/16 10:16:27;;;;;;;6.23;4.97;;;;;;;;;;5077457;28;20578;-71
2022/01/16 10:18:54;;;;;;;4.10;1.93;;;;;;;;;;5075401;28;20190;-66
2022/01/16 10:21:38;;;;;;;8.63;3.27;;;;;;;;;;5079033;28;20198;-65
2022/01/16 10:24:23;;;;;;;12.13;5.73;;;;;;;;;;5076744;28;20205;-65
2022/01/16 10:26:51;;;;;;;2.63;2.27;;;;;;;;;;5075867;28;20797;-66
2022/01/16 10:29:22;;;;;;;4.63;4.30;;;;;;;;;;5077582;28;20244;-68
2022/01/16 10:31:50;;;;;;;3.63;2.20;;;;;;;;;;5078262;28;21162;-68
2022/01/16 10:34:25;;;;;;;3.20;2.20;;;;;;;;;;5079782;28;20226;-64
2022/01/16 10:36:52;;;;;;;0.57;0.57;;;;;;;;;;5080466;28;20205;-68
2022/01/16 10:39:19;;;;;;;5.07;2.47;;;;;;;;;;5079917;28;20198;-68
2022/01/16 10:42:03;;;;;;;5.10;1.30;;;;;;;;;;5083679;28;20203;-74
2022/01/16 10:44:34;;;;;;;2.90;2.70;;;;;;;;;;5075730;28;20202;-68
2022/01/16 10:47:21;;;;;;;4.70;4.30;;;;;;;;;;5076915;28;20623;-68
2022/01/16 10:49:58;;;;;;;6.63;4.17;;;;;;;;;;5077362;28;20202;-69
2022/01/16 10:52:26;;;;;;;2.77;2.13;;;;;;;;;;5084741;28;20210;-71
2022/01/16 10:54:53;;;;;;;0.63;0.63;;;;;;;;;;5082421;28;20234;-72
2022/01/16 10:57:22;;;;;;;1.37;1.20;;;;;;;;;;5076131;28;20263;-75
2022/01/16 10:59:50;;;;;;;1.97;1.77;;;;;;;;;;5077660;28;20191;-73
2022/01/16 11:02:18;;;;;;;7.10;2.20;;;;;;;;;;5076525;28;20755;-73
2022/01/16 11:04:45;;;;;;;1.30;1.27;;;;;;;;;;5078946;28;20201;-74
2022/01/16 11:07:12;;;;;;;7.53;2.37;;;;;;;;;;5076323;28;20197;-76
2022/01/16 11:09:40;;;;;;;0.53;0.53;;;;;;;;;;5077749;28;20202;-74
2022/01/16 11:12:08;;;;;;;2.50;1.43;;;;;;;;;;5078918;28;20268;-71
2022/01/16 11:14:35;;;;;;;2.23;1.53;;;;;;;;;;5076473;28;20232;-72
2022/01/16 11:17:04;;;;;;;1.80;1.60;;;;;;;;;;5076374;28;20195;-76
2022/01/16 11:19:35;;;;;;;1.43;1.20;;;;;;;;;;5076070;28;20213;-70
2022/01/16 11:22:05;;;;;;;4.77;3.67;;;;;;;;;;5075657;28;20211;-72
2022/01/16 11:24:47;;;;;;;9.90;4.37;;;;;;;;;;5076962;28;20198;-75
2022/01/16 11:27:16;;;;;;;2.93;2.60;;;;;;;;;;5075299;28;20221;-74
2022/01/16 11:29:44;;;;;;;5.07;1.70;;;;;;;;;;5072462;28;20679;-71
2022/01/16 11:32:13;;;;;;;1.10;0.80;;;;;;;;;;5080410;28;20648;-70
2022/01/16 11:34:42;;;;;;;5.47;3.37;;;;;;;;;;5075788;28;20695;-69
2022/01/16 11:37:09;;;;;;;1.10;1.07;;;;;;;;;;5075462;28;20203;-68
2022/01/16 11:39:38;;;;;;;1.07;0.77;;;;;;;;;;5076106;28;20198;-69
2022/01/16 11:42:11;;;;;;;1.67;1.57;;;;;;;;;;5078336;28;20199;-69
2022/01/16 11:44:39;;;;;;;5.40;3.00;;;;;;;;;;5075823;28;20284;-70
2022/01/16 11:47:07;;;;;;;6.40;4.50;;;;;;;;;;5075926;28;20210;-69
2022/01/16 11:49:38;;;;;;;7.57;6.27;;;;;;;;;;5078717;28;20271;-65
2022/01/16 11:52:10;;;;;;;1.37;1.33;;;;;;;;;;5075731;28;20422;-66
2022/01/16 11:54:39;;;;;;;0.40;0.40;;;;;;;;;;5076249;28;20226;-71
2022/01/16 11:57:20;;;;;;;0.10;0.10;;;;;;;;;;5076002;28;20623;-72
2022/01/16 11:59:48;;;;;;;0.53;0.53;;;;;;;;;;5076175;28;20203;-72
2022/01/16 12:02:26;;;;;;;5.70;4.03;;;;;;;;;;5076503;28;20191;-71
2022/01/16 12:04:59;;;;;;;2.13;1.90;;;;;;;;;;5076367;28;20209;-71
2022/01/16 12:07:56;;;;;;;9.50;2.90;;;;;;;;;;5078781;28;20340;-66
2022/01/16 12:10:54;;;;;;;6.53;4.53;;;;;;;;;;5032201;28;20394;-75
2022/01/16 12:13:40;;;;;;;11.37;5.30;;;;;;;;;;5041728;28;20222;-79
2022/01/16 12:16:26;;;;;;;1.60;1.50;;;;;;;;;;5071454;28;21084;-70
2022/01/16 12:18:53;;;;;;;3.00;2.70;;;;;;;;;;5078956;28;20213;-70
2022/01/16 12:21:35;;;;;;;2.20;2.10;;;;;;;;;;5079717;28;20679;-70
2022/01/16 12:24:02;;;;;;;1.20;1.10;;;;;;;;;;5065458;28;20696;-71
2022/01/16 12:26:35;;;;;;;6.40;3.03;;;;;;;;;;5060966;28;20754;-70
2022/01/16 12:29:03;;;;;;;0.33;0.33;;;;;;;;;;5054842;28;21227;-71
2022/01/16 12:31:35;;;;;;;0.20;0.20;;;;;;;;;;5063068;28;20275;-70
2022/01/16 12:34:02;;;;;;;4.90;2.63;;;;;;;;;;5066546;28;20311;-71
2022/01/16 12:36:33;;;;;;;2.03;1.90;;;;;;;;;;5063474;28;20203;-76
2022/01/16 12:39:03;;;;;;;6.60;3.73;;;;;;;;;;5061737;28;20567;-71
2022/01/16 12:41:33;;;;;;;9.13;4.20;;;;;;;;;;5064267;28;20202;-71
2022/01/16 12:44:02;;;;;;;16.80;6.50;;;;;;;;;;5063224;28;20341;-71
2022/01/16 12:46:33;;;;;;;4.20;3.30;;;;;;;;;;5065898;28;20243;-71
2022/01/16 12:49:03;;;;;;;6.17;2.30;;;;;;;;;;5060481;28;20616;-71
2022/01/16 12:51:31;;;;;;;10.27;5.60;;;;;;;;;;5065402;28;20208;-71
2022/01/16 12:54:01;;;;;;;5.10;3.83;;;;;;;;;;5062869;28;20222;-71
2022/01/16 12:56:31;;;;;;;9.00;6.20;;;;;;;;;;5065846;28;20210;-70
2022/01/16 12:59:00;;;;;;;3.60;3.27;;;;;;;;;;5066668;28;20221;-70
2022/01/16 13:01:28;;;;;;;6.27;5.00;;;;;;;;;;5067948;28;20199;-71
2022/01/16 13:03:55;;;;;;;5.40;3.23;;;;;;;;;;5067532;28;20232;-71
2022/01/16 13:06:24;;;;;;;4.17;3.77;;;;;;;;;;5064259;28;20205;-73
2022/01/16 13:08:56;;;;;;;5.07;3.87;;;;;;;;;;5060680;28;20362;-76
2022/01/16 13:11:23;;;;;;;7.80;6.00;;;;;;;;;;5063177;28;22065;-72
2022/01/16 13:13:52;;;;;;;1.00;0.97;;;;;;;;;;5062249;28;20233;-70
2022/01/16 13:16:21;;;;;;;5.13;4.73;;;;;;;;;;5061681;28;20266;-74
2022/01/16 13:19:01;;;;;;;0.90;0.90;;;;;;;;;;5054722;28;20640;-78
2022/01/16 13:21:35;;;;;;;0.53;0.53;;;;;;;;;;5048959;28;20243;-72
2022/01/16 13:24:02;;;;;;;1.10;1.00;;;;;;;;;;5057728;28;20207;-71
2022/01/16 13:26:29;;;;;;;1.30;1.07;;;;;;;;;;5052238;28;20227;-75
2022/01/16 13:29:08;;;;;;;1.03;1.03;;;;;;;;;;5048647;28;21098;-74
2022/01/16 13:31:36;;;;;;;2.23;1.07;;;;;;;;;;5052135;28;20194;-73
2022/01/16 13:34:07;;;;;;;5.30;3.40;;;;;;;;;;5051923;28;20309;-75
2022/01/16 13:36:34;;;;;;;1.50;1.23;;;;;;;;;;5049444;28;20225;-74
2022/01/16 13:39:01;;;;;;;1.77;1.67;;;;;;;;;;5043385;28;20580;-75
2022/01/16 13:41:29;;;;;;;5.80;1.43;;;;;;;;;;5052113;28;20206;-70
2022/01/16 13:43:56;;;;;;;10.83;3.00;;;;;;;;;;5048916;28;20605;-71
2022/01/16 13:46:29;;;;;;;3.37;3.07;;;;;;;;;;5047157;28;21066;-76
2022/01/16 13:49:01;;;;;;;8.53;5.00;;;;;;;;;;5058584;28;20202;-72
2022/01/16 13:51:31;;;;;;;5.77;3.83;;;;;;;;;;5064652;28;21906;-78
2022/01/16 13:54:11;;;;;;;1.87;1.77;;;;;;;;;;5051030;28;20226;-76
2022/01/16 13:56:49;;;;;;;5.33;2.83;;;;;;;;;;5051348;28;20206;-76
2022/01/16 13:59:17;;;;;;;2.53;2.33;;;;;;;;;;5056735;28;20190;-71
2022/01/16 14:01:51;;;;;;;0.73;0.73;;;;;;;;;;5050207;28;20207;-78
2022/01/16 14:04:18;;;;;;;2.53;2.33;;;;;;;;;;5055209;28;21611;-74
2022/01/16 14:06:49;;;;;;;2.80;1.00;;;;;;;;;;5055629;28;20252;-71
2022/01/16 14:09:17;;;;;;;0.67;0.67;;;;;;;;;;5060573;28;20206;-75
2022/01/16 14:11:45;;;;;;;3.27;3.00;;;;;;;;;;5077671;28;20606;-74
2022/01/16 14:14:13;;;;;;;5.13;1.93;;;;;;;;;;5063210;28;20222;-77
2022/01/16 14:16:47;;;;;;;1.13;0.67;;;;;;;;;;5066619;28;20567;-72
2022/01/16 14:19:18;;;;;;;2.43;1.90;;;;;;;;;;5064851;28;20210;-71
2022/01/16 14:22:10;;;;;;;4.17;2.50;;;;;;;;;;5064367;28;20583;-72
2022/01/16 14:24:37;;;;;;;1.37;1.27;;;;;;;;;;5066809;28;20709;-71
2022/01/16 14:27:06;;;;;;;1.60;1.50;;;;;;;;;;5067969;28;20647;-74
2022/01/16 14:29:33;;;;;;;2.47;2.37;;;;;;;;;;5067382;28;20198;-73
2022/01/16 14:32:02;;;;;;;7.43;3.70;;;;;;;;;;5066135;28;20300;-76
2022/01/16 14:34:31;;;;;;;1.93;1.80;;;;;;;;;;5067332;28;20219;-73
2022/01/16 14:36:58;;;;;;;1.00;1.00;;;;;;;;;;5067617;28;20214;-71
2022/01/16 14:39:26;;;;;;;2.03;1.83;;;;;;;;;;5065553;28;20279;-76
2022/01/16 14:41:54;;;;;;;1.50;0.90;;;;;;;;;;5063633;28;20283;-75
2022/01/16 14:44:22;;;;;;;0.97;0.97;;;;;;;;;;5056440;28;20259;-74
2022/01/16 14:46:50;;;;;;;2.20;2.07;;;;;;;;;;5046497;28;20315;-76
2022/01/16 14:49:17;;;;;;;1.07;1.00;;;;;;;;;;5056161;28;20548;-75
2022/01/16 14:51:46;;;;;;;4.77;1.07;;;;;;;;;;5053539;28;20661;-74
2022/01/16 14:54:14;;;;;;;1.33;1.23;;;;;;;;;;5052367;28;20224;-73
2022/01/16 14:56:41;;;;;;;3.43;2.17;;;;;;;;;;5048914;28;20666;-77
2022/01/16 14:59:09;;;;;;;1.50;1.33;;;;;;;;;;5080380;28;20198;-74
2022/01/16 15:01:37;;;;;;;3.23;2.20;;;;;;;;;;5089274;28;20289;-71
2022/01/16 15:04:05;;;;;;;2.40;2.07;;;;;;;;;;5089823;28;20222;-72
2022/01/16 15:06:33;;;;;;;1.00;1.00;;;;;;;;;;5088659;28;20209;-71
2022/01/16 15:09:02;;;;;;;1.77;1.67;;;;;;;;;;5088674;28;20200;-72
2022/01/16 15:11:30;;;;;;;3.97;2.83;;;;;;;;;;5086784;28;20194;-74
2022/01/16 15:13:58;;;;;;;1.90;1.63;;;;;;;;;;5088123;28;20203;-75
2022/01/16 15:16:26;;;;;;;2.27;2.10;;;;;;;;;;5087448;28;20194;-71
2022/01/16 15:18:56;;;;;;;1.90;1.80;;;;;;;;;;5087836;28;20191;-74
2022/01/16 15:21:30;;;;;;;1.43;1.30;;;;;;;;;;5087253;28;20205;-75
2022/01/16 15:23:59;;;;;;;2.03;1.37;;;;;;;;;;5088301;28;20286;-72
2022/01/16 15:26:28;;;;;;;3.67;1.07;;;;;;;;;;5088588;28;20595;-69
2022/01/16 15:28:55;;;;;;;0.37;0.37;;;;;;;;;;5086353;28;20194;-72
2022/01/16 15:31:23;;;;;;;1.17;1.07;;;;;;;;;;5087576;28;20614;-71
2022/01/16 15:33:50;;;;;;;2.27;1.47;;;;;;;;;;5088540;28;20198;-71
2022/01/16 15:36:18;;;;;;;1.87;1.17;;;;;;;;;;5086443;28;20702;-67
2022/01/16 15:38:45;;;;;;;3.23;2.47;;;;;;;;;;5088544;28;20198;-67
2022/01/16 15:41:12;;;;;;;2.23;1.60;;;;;;;;;;5088759;28;20667;-66
2022/01/16 15:43:41;;;;;;;0.70;0.70;;;;;;;;;;5086936;28;20194;-67
2022/01/16 15:46:09;;;;;;;0.00;0.00;;;;;;;;;;5087307;28;20217;-67
2022/01/16 15:48:36;;;;;;;2.30;1.57;;;;;;;;;;5089550;28;20221;-71
2022/01/16 15:51:04;;;;;;;0.80;0.80;;;;;;;;;;5087798;28;20775;-70
2022/01/16 15:53:32;;;;;;;0.27;0.27;;;;;;;;;;5089489;28;20342;-67
2022/01/16 15:55:59;;;;;;;1.83;1.20;;;;;;;;;;5085411;28;20269;-69
2022/01/16 15:58:26;;;;;;;1.33;1.20;;;;;;;;;;5088767;28;20202;-65
2022/01/16 16:00:55;;;;;;;0.67;0.67;;;;;;;;;;5083378;28;20198;-66
2022/01/16 16:03:23;;;;;;;2.63;2.43;;;;;;;;;;5087444;28;20223;-67
2022/01/16 16:05:50;;;;;;;0.90;0.90;;;;;;;;;;5087176;28;20201;-67
2022/01/16 16:08:17;;;;;;;9.57;2.07;;;;;;;;;;5085104;28;20473;-67
2022/01/16 16:10:45;;;;;;;0.13;0.13;;;;;;;;;;5089412;28;20213;-69
2022/01/16 16:13:12;;;;;;;1.10;0.90;;;;;;;;;;5086404;28;20293;-71
2022/01/16 16:15:40;;;;;;;0.47;0.47;;;;;;;;;;5085051;28;20233;-71
2022/01/16 16:18:09;;;;;;;0.50;0.33;;;;;;;;;;5087210;28;20198;-68
2022/01/16 16:20:37;;;;;;;2.73;2.57;;;;;;;;;;5087156;28;20207;-70
2022/01/16 16:23:06;;;;;;;0.40;0.40;;;;;;;;;;5087958;28;20205;-70
2022/01/16 16:25:34;;;;;;;0.67;0.63;;;;;;;;;;5086710;28;20190;-67
2022/01/16 16:28:01;;;;;;;0.20;0.20;;;;;;;;;;5091443;28;20195;-69
2022/01/16 16:30:31;;;;;;;0.73;0.70;;;;;;;;;;5092399;28;20205;-68
2022/01/16 16:32:58;;;;;;;1.47;0.50;;;;;;;;;;5090295;28;20582;-67
2022/01/16 16:35:27;;;;;;;0.37;0.30;;;;;;;;;;5086898;28;20510;-69
2022/01/16 16:43:01;;;;;;;3.93;1.13;;;;;;;;;;5094705;27;21174;-68
2022/01/16 16:45:29;;;;;;;0.10;0.10;;;;;;;;;;5085558;28;20194;-67
2022/01/16 16:47:56;;;;;;;0.43;0.43;;;;;;;;;;5084040;28;20198;-69
2022/01/16 16:50:28;;;;;;;0.00;0.00;;;;;;;;;;5080806;28;20236;-67
2022/01/16 16:52:55;;;;;;;0.00;0.00;;;;;;;;;;5080895;28;20311;-67
2022/01/16 16:55:23;;;;;;;0.00;0.00;;;;;;;;;;5076247;28;20197;-67
2022/01/16 16:57:50;;;;;;;0.00;0.00;;;;;;;;;;5084464;28;20579;-67
2022/01/16 17:00:21;;;;;;;1.07;1.03;;;;;;;;;;5084431;28;20213;-70
2022/01/16 17:02:48;;;;;;;0.50;0.40;;;;;;;;;;5082565;28;20667;-69
2022/01/16 17:05:15;;;;;;;0.00;0.00;;;;;;;;;;5079473;28;20198;-69
2022/01/16 17:07:43;;;;;;;0.20;0.20;;;;;;;;;;5085206;28;20214;-69
2022/01/16 17:10:11;;;;;;;0.00;0.00;;;;;;;;;;5081188;28;20202;-68
2022/01/16 17:12:38;;;;;;;0.00;0.00;;;;;;;;;;5083781;28;20222;-66
2022/01/16 17:15:07;;;;;;;0.53;0.50;;;;;;;;;;5078441;28;20225;-67
2022/01/16 17:17:36;;;;;;;0.00;0.00;;;;;;;;;;5082131;28;20191;-71
2022/01/16 17:20:03;;;;;;;0.20;0.10;;;;;;;;;;5085939;28;20289;-68
2022/01/16 17:22:31;;;;;;;0.50;0.50;;;;;;;;;;5084872;28;20213;-69
2022/01/16 17:25:03;;;;;;;0.00;0.00;;;;;;;;;;5081236;28;20773;-67
2022/01/16 17:27:31;;;;;;;1.40;0.63;;;;;;;;;;5083651;28;20286;-66
2022/01/16 17:29:59;;;;;;;0.00;0.00;;;;;;;;;;5079026;28;20191;-66
2022/01/16 17:32:27;;;;;;;0.30;0.30;;;;;;;;;;5074674;28;20303;-66
2022/01/16 17:34:57;;;;;;;0.80;0.63;;;;;;;;;;5073796;28;20205;-68
2022/01/16 17:37:24;;;;;;;0.20;0.20;;;;;;;;;;5078249;28;20233;-67
2022/01/16 17:39:51;;;;;;;0.37;0.37;;;;;;;;;;5076376;28;20211;-66
2022/01/16 17:42:19;;;;;;;0.00;0.00;;;;;;;;;;5079041;28;20218;-67
2022/01/16 17:44:47;;;;;;;0.73;0.50;;;;;;;;;;5083320;28;20193;-66